sensor_id;sensor_type;location;lat;lon;timestamp;temperature;humidity
326;DHT22;150;52.352;14.058;2022-11-30T00:01:40;5.70;48.20
326;DHT22;150;52.352;14.058;2022-11-30T00:04:08;5.80;48.30
326;DHT22;150;52.352;14.058;2022-11-30T00:06:36;5.70;48.30
326;DHT22;150;52.352;14.058;2022-11-30T00:09:07;5.80;48.30
326;DHT22;150;52.352;14.058;2022-11-30T00:11:34;5.80;47.90
326;DHT22;150;52.352;14.058;2022-11-30T00:14:04;5.90;47.80
326;DHT22;150;52.352;14.058;2022-11-30T00:16:31;6.00;47.50
326;DHT22;150;52.352;14.058;2022-11-30T00:18:59;6.10;47.40
326;DHT22;150;52.352;14.058;2022-11-30T00:21:25;6.10;46.70
326;DHT22;150;52.352;14.058;2022-11-30T00:23:52;6.10;46.70
326;DHT22;150;52.352;14.058;2022-11-30T00:26:19;6.10;45.90
326;DHT22;150;52.352;14.058;2022-11-30T00:28:47;6.10;46.00
326;DHT22;150;52.352;14.058;2022-11-30T00:31:15;6.20;45.70
326;DHT22;150;52.352;14.058;2022-11-30T00:33:42;6.10;45.90
326;DHT22;150;52.352;14.058;2022-11-30T00:36:13;6.00;45.90
326;DHT22;150;52.352;14.058;2022-11-30T00:38:40;6.00;46.40
326;DHT22;150;52.352;14.058;2022-11-30T00:41:07;6.00;45.80
326;DHT22;150;52.352;14.058;2022-11-30T00:43:33;6.00;45.80
326;DHT22;150;52.352;14.058;2022-11-30T00:46:00;5.80;46.70
326;DHT22;150;52.352;14.058;2022-11-30T00:48:27;5.80;47.80
326;DHT22;150;52.352;14.058;2022-11-30T00:50:54;5.80;47.30
326;DHT22;150;52.352;14.058;2022-11-30T00:53:22;5.60;47.90
326;DHT22;150;52.352;14.058;2022-11-30T00:55:49;5.50;48.10
326;DHT22;150;52.352;14.058;2022-11-30T00:58:15;5.60;48.50
326;DHT22;150;52.352;14.058;2022-11-30T01:00:42;5.60;48.50
326;DHT22;150;52.352;14.058;2022-11-30T01:03:09;5.70;48.10
326;DHT22;150;52.352;14.058;2022-11-30T01:05:36;5.60;47.90
326;DHT22;150;52.352;14.058;2022-11-30T01:08:04;5.50;48.10
326;DHT22;150;52.352;14.058;2022-11-30T01:10:34;5.50;48.30
326;DHT22;150;52.352;14.058;2022-11-30T01:13:01;5.50;48.00
326;DHT22;150;52.352;14.058;2022-11-30T01:15:28;5.50;48.20
326;DHT22;150;52.352;14.058;2022-11-30T01:17:55;5.60;48.20
326;DHT22;150;52.352;14.058;2022-11-30T01:20:21;5.60;47.90
326;DHT22;150;52.352;14.058;2022-11-30T01:22:48;5.60;48.00
326;DHT22;150;52.352;14.058;2022-11-30T01:25:15;5.50;48.10
326;DHT22;150;52.352;14.058;2022-11-30T01:27:43;5.50;48.40
326;DHT22;150;52.352;14.058;2022-11-30T01:30:13;5.40;48.40
326;DHT22;150;52.352;14.058;2022-11-30T01:32:40;5.30;49.00
326;DHT22;150;52.352;14.058;2022-11-30T01:35:07;5.40;49.10
326;DHT22;150;52.352;14.058;2022-11-30T01:37:34;5.30;49.00
326;DHT22;150;52.352;14.058;2022-11-30T01:40:01;5.20;49.30
326;DHT22;150;52.352;14.058;2022-11-30T01:42:28;5.20;49.70
326;DHT22;150;52.352;14.058;2022-11-30T01:44:56;5.30;49.80
326;DHT22;150;52.352;14.058;2022-11-30T01:47:26;5.30;49.30
326;DHT22;150;52.352;14.058;2022-11-30T01:50:00;5.30;49.30
326;DHT22;150;52.352;14.058;2022-11-30T01:52:33;5.30;49.30
326;DHT22;150;52.352;14.058;2022-11-30T01:55:07;5.30;49.30
326;DHT22;150;52.352;14.058;2022-11-30T01:57:40;5.30;49.20
326;DHT22;150;52.352;14.058;2022-11-30T02:00:13;5.30;49.10
326;DHT22;150;52.352;14.058;2022-11-30T02:02:46;5.30;49.10
326;DHT22;150;52.352;14.058;2022-11-30T02:05:15;5.40;49.00
326;DHT22;150;52.352;14.058;2022-11-30T02:07:48;5.40;48.80
326;DHT22;150;52.352;14.058;2022-11-30T02:10:17;5.40;48.60
326;DHT22;150;52.352;14.058;2022-11-30T02:15:42;5.40;49.30
326;DHT22;150;52.352;14.058;2022-11-30T02:18:13;5.50;48.10
326;DHT22;150;52.352;14.058;2022-11-30T02:20:49;5.50;48.20
326;DHT22;150;52.352;14.058;2022-11-30T02:26:26;5.60;47.80
326;DHT22;150;52.352;14.058;2022-11-30T02:29:04;5.70;47.70
326;DHT22;150;52.352;14.058;2022-11-30T02:31:39;5.80;47.40
326;DHT22;150;52.352;14.058;2022-11-30T02:34:09;5.80;46.80
326;DHT22;150;52.352;14.058;2022-11-30T02:36:38;5.80;46.50
326;DHT22;150;52.352;14.058;2022-11-30T02:39:06;5.80;46.80
326;DHT22;150;52.352;14.058;2022-11-30T02:41:36;5.80;46.50
326;DHT22;150;52.352;14.058;2022-11-30T02:44:05;5.90;46.40
326;DHT22;150;52.352;14.058;2022-11-30T02:46:40;5.90;46.30
326;DHT22;150;52.352;14.058;2022-11-30T02:49:16;5.80;45.70
326;DHT22;150;52.352;14.058;2022-11-30T02:51:44;5.90;46.40
326;DHT22;150;52.352;14.058;2022-11-30T02:54:11;6.00;45.80
326;DHT22;150;52.352;14.058;2022-11-30T02:56:38;6.00;45.40
326;DHT22;150;52.352;14.058;2022-11-30T02:59:06;5.90;45.60
326;DHT22;150;52.352;14.058;2022-11-30T03:01:33;5.90;45.80
326;DHT22;150;52.352;14.058;2022-11-30T03:03:59;5.90;45.80
326;DHT22;150;52.352;14.058;2022-11-30T03:06:26;5.90;45.80
326;DHT22;150;52.352;14.058;2022-11-30T03:08:52;5.90;45.80
326;DHT22;150;52.352;14.058;2022-11-30T03:11:19;6.00;45.30
326;DHT22;150;52.352;14.058;2022-11-30T03:13:46;6.00;45.10
326;DHT22;150;52.352;14.058;2022-11-30T03:16:14;6.00;44.90
326;DHT22;150;52.352;14.058;2022-11-30T03:18:40;5.90;45.80
326;DHT22;150;52.352;14.058;2022-11-30T03:21:08;5.90;45.30
326;DHT22;150;52.352;14.058;2022-11-30T03:23:35;5.80;45.70
326;DHT22;150;52.352;14.058;2022-11-30T03:26:02;5.80;46.20
326;DHT22;150;52.352;14.058;2022-11-30T03:28:29;5.80;45.80
326;DHT22;150;52.352;14.058;2022-11-30T03:30:55;5.90;45.80
326;DHT22;150;52.352;14.058;2022-11-30T03:33:24;5.90;45.80
326;DHT22;150;52.352;14.058;2022-11-30T03:35:58;5.90;45.80
326;DHT22;150;52.352;14.058;2022-11-30T03:38:25;5.80;45.70
326;DHT22;150;52.352;14.058;2022-11-30T03:40:58;5.80;46.00
326;DHT22;150;52.352;14.058;2022-11-30T03:43:25;5.80;46.20
326;DHT22;150;52.352;14.058;2022-11-30T03:45:52;5.80;46.70
326;DHT22;150;52.352;14.058;2022-11-30T03:48:18;6.00;46.50
326;DHT22;150;52.352;14.058;2022-11-30T03:50:46;6.00;45.80
326;DHT22;150;52.352;14.058;2022-11-30T03:53:14;6.10;45.50
326;DHT22;150;52.352;14.058;2022-11-30T03:55:41;6.10;45.00
326;DHT22;150;52.352;14.058;2022-11-30T03:58:08;6.20;44.80
326;DHT22;150;52.352;14.058;2022-11-30T04:00:34;6.20;44.70
326;DHT22;150;52.352;14.058;2022-11-30T04:03:01;6.10;44.40
326;DHT22;150;52.352;14.058;2022-11-30T04:05:28;6.00;45.20
326;DHT22;150;52.352;14.058;2022-11-30T04:07:56;6.00;45.10
326;DHT22;150;52.352;14.058;2022-11-30T04:10:22;6.10;45.60
326;DHT22;150;52.352;14.058;2022-11-30T04:12:49;6.10;45.40
326;DHT22;150;52.352;14.058;2022-11-30T04:15:16;6.10;45.20
326;DHT22;150;52.352;14.058;2022-11-30T04:17:43;6.10;44.40
326;DHT22;150;52.352;14.058;2022-11-30T04:20:10;6.20;44.90
326;DHT22;150;52.352;14.058;2022-11-30T04:22:36;6.30;44.70
326;DHT22;150;52.352;14.058;2022-11-30T04:25:06;6.20;44.40
326;DHT22;150;52.352;14.058;2022-11-30T04:27:32;6.20;44.60
326;DHT22;150;52.352;14.058;2022-11-30T04:29:59;6.30;45.00
326;DHT22;150;52.352;14.058;2022-11-30T04:32:26;6.30;44.40
326;DHT22;150;52.352;14.058;2022-11-30T04:34:52;6.40;44.40
326;DHT22;150;52.352;14.058;2022-11-30T04:37:19;6.40;44.00
326;DHT22;150;52.352;14.058;2022-11-30T04:39:45;6.40;43.00
326;DHT22;150;52.352;14.058;2022-11-30T04:42:13;6.30;43.10
326;DHT22;150;52.352;14.058;2022-11-30T04:44:40;6.20;43.10
326;DHT22;150;52.352;14.058;2022-11-30T04:47:07;6.10;44.10
326;DHT22;150;52.352;14.058;2022-11-30T04:49:33;6.00;44.40
326;DHT22;150;52.352;14.058;2022-11-30T04:52:00;6.00;44.90
326;DHT22;150;52.352;14.058;2022-11-30T04:54:26;6.00;45.20
326;DHT22;150;52.352;14.058;2022-11-30T04:56:53;6.00;45.00
326;DHT22;150;52.352;14.058;2022-11-30T04:59:21;6.00;44.80
326;DHT22;150;52.352;14.058;2022-11-30T05:01:48;5.90;45.10
326;DHT22;150;52.352;14.058;2022-11-30T05:04:14;5.90;45.30
326;DHT22;150;52.352;14.058;2022-11-30T05:06:41;5.90;45.00
326;DHT22;150;52.352;14.058;2022-11-30T05:09:08;5.70;45.60
326;DHT22;150;52.352;14.058;2022-11-30T05:11:35;5.80;46.10
326;DHT22;150;52.352;14.058;2022-11-30T05:14:01;5.70;45.60
326;DHT22;150;52.352;14.058;2022-11-30T05:16:31;5.70;46.10
326;DHT22;150;52.352;14.058;2022-11-30T05:18:57;5.80;46.00
326;DHT22;150;52.352;14.058;2022-11-30T05:21:24;5.70;46.00
326;DHT22;150;52.352;14.058;2022-11-30T05:23:51;5.80;45.70
326;DHT22;150;52.352;14.058;2022-11-30T05:26:17;5.80;46.60
326;DHT22;150;52.352;14.058;2022-11-30T05:28:44;5.90;46.00
326;DHT22;150;52.352;14.058;2022-11-30T05:31:10;5.90;46.10
326;DHT22;150;52.352;14.058;2022-11-30T05:33:38;5.90;45.40
326;DHT22;150;52.352;14.058;2022-11-30T05:36:06;5.90;45.30
326;DHT22;150;52.352;14.058;2022-11-30T05:38:33;5.80;45.40
326;DHT22;150;52.352;14.058;2022-11-30T05:40:59;5.80;45.70
326;DHT22;150;52.352;14.058;2022-11-30T05:43:27;5.80;45.70
326;DHT22;150;52.352;14.058;2022-11-30T05:45:58;5.90;46.00
326;DHT22;150;52.352;14.058;2022-11-30T05:48:26;6.00;45.40
326;DHT22;150;52.352;14.058;2022-11-30T05:50:54;5.90;44.80
326;DHT22;150;52.352;14.058;2022-11-30T05:53:23;5.90;45.00
326;DHT22;150;52.352;14.058;2022-11-30T05:55:49;5.90;45.20
326;DHT22;150;52.352;14.058;2022-11-30T05:58:16;5.90;45.20
326;DHT22;150;52.352;14.058;2022-11-30T06:00:42;5.80;45.60
326;DHT22;150;52.352;14.058;2022-11-30T06:03:09;5.80;45.40
326;DHT22;150;52.352;14.058;2022-11-30T06:05:36;5.80;45.70
326;DHT22;150;52.352;14.058;2022-11-30T06:08:04;5.80;45.70
326;DHT22;150;52.352;14.058;2022-11-30T06:10:31;5.80;45.70
326;DHT22;150;52.352;14.058;2022-11-30T06:12:57;5.80;45.70
326;DHT22;150;52.352;14.058;2022-11-30T06:15:24;5.80;45.70
326;DHT22;150;52.352;14.058;2022-11-30T06:17:50;5.70;45.60
326;DHT22;150;52.352;14.058;2022-11-30T06:20:20;5.70;46.10
326;DHT22;150;52.352;14.058;2022-11-30T06:22:46;5.90;45.80
326;DHT22;150;52.352;14.058;2022-11-30T06:25:14;5.80;45.10
326;DHT22;150;52.352;14.058;2022-11-30T06:27:41;5.70;46.00
326;DHT22;150;52.352;14.058;2022-11-30T06:30:09;5.80;45.70
326;DHT22;150;52.352;14.058;2022-11-30T06:32:36;5.80;45.70
326;DHT22;150;52.352;14.058;2022-11-30T06:35:02;5.70;45.60
326;DHT22;150;52.352;14.058;2022-11-30T06:37:32;5.60;46.00
326;DHT22;150;52.352;14.058;2022-11-30T06:39:59;5.40;46.60
326;DHT22;150;52.352;14.058;2022-11-30T06:42:28;5.50;47.80
326;DHT22;150;52.352;14.058;2022-11-30T06:44:55;5.40;46.90
326;DHT22;150;52.352;14.058;2022-11-30T06:47:22;5.40;47.10
326;DHT22;150;52.352;14.058;2022-11-30T06:49:48;5.40;47.30
326;DHT22;150;52.352;14.058;2022-11-30T06:52:15;5.30;47.50
326;DHT22;150;52.352;14.058;2022-11-30T06:54:42;5.20;47.90
326;DHT22;150;52.352;14.058;2022-11-30T06:57:08;5.20;48.10
326;DHT22;150;52.352;14.058;2022-11-30T06:59:36;5.30;47.60
326;DHT22;150;52.352;14.058;2022-11-30T07:02:08;5.40;48.00
326;DHT22;150;52.352;14.058;2022-11-30T07:04:35;5.50;47.20
326;DHT22;150;52.352;14.058;2022-11-30T07:07:02;5.50;46.90
326;DHT22;150;52.352;14.058;2022-11-30T07:09:28;5.50;46.90
326;DHT22;150;52.352;14.058;2022-11-30T07:11:56;5.50;47.10
326;DHT22;150;52.352;14.058;2022-11-30T07:14:23;5.40;46.80
326;DHT22;150;52.352;14.058;2022-11-30T07:16:51;5.40;46.90
326;DHT22;150;52.352;14.058;2022-11-30T07:19:18;5.30;47.00
326;DHT22;150;52.352;14.058;2022-11-30T07:21:45;5.30;47.20
326;DHT22;150;52.352;14.058;2022-11-30T07:24:12;5.40;47.40
326;DHT22;150;52.352;14.058;2022-11-30T07:26:57;5.30;47.50
326;DHT22;150;52.352;14.058;2022-11-30T07:29:24;5.40;47.40
326;DHT22;150;52.352;14.058;2022-11-30T07:31:52;5.50;47.20
326;DHT22;150;52.352;14.058;2022-11-30T07:34:19;5.70;47.10
326;DHT22;150;52.352;14.058;2022-11-30T07:36:47;5.70;46.20
326;DHT22;150;52.352;14.058;2022-11-30T07:39:14;5.70;45.90
326;DHT22;150;52.352;14.058;2022-11-30T07:41:41;5.70;45.60
326;DHT22;150;52.352;14.058;2022-11-30T07:44:08;5.70;45.60
326;DHT22;150;52.352;14.058;2022-11-30T07:46:36;5.90;45.80
326;DHT22;150;52.352;14.058;2022-11-30T07:49:06;6.00;45.40
326;DHT22;150;52.352;14.058;2022-11-30T07:51:33;6.10;44.70
326;DHT22;150;52.352;14.058;2022-11-30T07:54:00;6.20;43.70
326;DHT22;150;52.352;14.058;2022-11-30T07:56:27;6.20;43.60
326;DHT22;150;52.352;14.058;2022-11-30T07:58:55;6.20;43.40
326;DHT22;150;52.352;14.058;2022-11-30T08:01:23;6.20;43.40
326;DHT22;150;52.352;14.058;2022-11-30T08:03:51;6.30;43.30
326;DHT22;150;52.352;14.058;2022-11-30T08:06:21;6.40;43.70
326;DHT22;150;52.352;14.058;2022-11-30T08:08:49;6.40;43.00
326;DHT22;150;52.352;14.058;2022-11-30T08:11:18;6.50;42.90
326;DHT22;150;52.352;14.058;2022-11-30T08:13:45;6.50;42.20
326;DHT22;150;52.352;14.058;2022-11-30T08:16:13;6.40;41.80
326;DHT22;150;52.352;14.058;2022-11-30T08:18:40;6.40;42.10
326;DHT22;150;52.352;14.058;2022-11-30T08:21:11;6.40;42.00
326;DHT22;150;52.352;14.058;2022-11-30T08:23:41;6.30;42.30
326;DHT22;150;52.352;14.058;2022-11-30T08:26:10;6.30;41.70
326;DHT22;150;52.352;14.058;2022-11-30T08:28:37;6.40;42.90
326;DHT22;150;52.352;14.058;2022-11-30T08:31:06;6.50;42.70
326;DHT22;150;52.352;14.058;2022-11-30T08:33:34;6.70;42.80
326;DHT22;150;52.352;14.058;2022-11-30T08:36:07;6.80;41.40
326;DHT22;150;52.352;14.058;2022-11-30T08:38:36;6.90;40.20
326;DHT22;150;52.352;14.058;2022-11-30T08:41:05;6.90;40.60
326;DHT22;150;52.352;14.058;2022-11-30T08:43:32;6.90;40.50
326;DHT22;150;52.352;14.058;2022-11-30T08:46:01;7.10;40.60
326;DHT22;150;52.352;14.058;2022-11-30T08:48:28;7.20;39.70
326;DHT22;150;52.352;14.058;2022-11-30T08:50:58;7.30;39.00
326;DHT22;150;52.352;14.058;2022-11-30T08:53:24;7.30;38.30
326;DHT22;150;52.352;14.058;2022-11-30T08:55:55;7.30;38.10
326;DHT22;150;52.352;14.058;2022-11-30T08:58:23;7.40;37.90
326;DHT22;150;52.352;14.058;2022-11-30T09:00:50;7.40;37.70
326;DHT22;150;52.352;14.058;2022-11-30T09:03:17;7.50;37.90
326;DHT22;150;52.352;14.058;2022-11-30T09:05:43;7.40;37.20
326;DHT22;150;52.352;14.058;2022-11-30T09:08:10;7.50;37.10
326;DHT22;150;52.352;14.058;2022-11-30T09:10:37;7.40;38.00
326;DHT22;150;52.352;14.058;2022-11-30T09:13:03;7.30;37.30
326;DHT22;150;52.352;14.058;2022-11-30T09:15:32;7.40;38.30
326;DHT22;150;52.352;14.058;2022-11-30T09:17:58;7.40;37.60
326;DHT22;150;52.352;14.058;2022-11-30T09:20:25;7.50;38.10
326;DHT22;150;52.352;14.058;2022-11-30T09:22:51;7.60;37.20
326;DHT22;150;52.352;14.058;2022-11-30T09:25:18;7.70;37.40
326;DHT22;150;52.352;14.058;2022-11-30T09:27:45;7.70;36.60
326;DHT22;150;52.352;14.058;2022-11-30T09:30:12;7.70;36.60
326;DHT22;150;52.352;14.058;2022-11-30T09:32:40;7.70;36.60
326;DHT22;150;52.352;14.058;2022-11-30T09:35:07;7.80;36.50
326;DHT22;150;52.352;14.058;2022-11-30T09:37:34;7.80;36.50
326;DHT22;150;52.352;14.058;2022-11-30T09:40:00;7.80;36.70
326;DHT22;150;52.352;14.058;2022-11-30T09:42:38;7.80;36.20
326;DHT22;150;52.352;14.058;2022-11-30T09:45:11;7.70;35.90
326;DHT22;150;52.352;14.058;2022-11-30T09:48:02;7.80;36.10
326;DHT22;150;52.352;14.058;2022-11-30T09:50:38;7.70;35.80
326;DHT22;150;52.352;14.058;2022-11-30T09:53:11;7.40;36.10
326;DHT22;150;52.352;14.058;2022-11-30T09:55:41;7.30;36.50
326;DHT22;150;52.352;14.058;2022-11-30T09:58:12;7.20;36.50
326;DHT22;150;52.352;14.058;2022-11-30T10:00:42;7.20;36.60
326;DHT22;150;52.352;14.058;2022-11-30T10:03:11;7.10;36.80
326;DHT22;150;52.352;14.058;2022-11-30T10:05:44;7.00;36.90
326;DHT22;150;52.352;14.058;2022-11-30T10:08:26;7.00;37.80
326;DHT22;150;52.352;14.058;2022-11-30T10:11:15;7.00;37.10
326;DHT22;150;52.352;14.058;2022-11-30T10:13:56;6.90;37.40
326;DHT22;150;52.352;14.058;2022-11-30T10:16:30;6.90;37.60
326;DHT22;150;52.352;14.058;2022-11-30T10:19:07;7.00;37.50
326;DHT22;150;52.352;14.058;2022-11-30T10:21:45;6.90;36.70
326;DHT22;150;52.352;14.058;2022-11-30T10:24:31;6.80;36.80
326;DHT22;150;52.352;14.058;2022-11-30T10:27:09;6.70;37.80
326;DHT22;150;52.352;14.058;2022-11-30T10:29:39;6.60;37.70
326;DHT22;150;52.352;14.058;2022-11-30T10:32:13;6.60;37.50
326;DHT22;150;52.352;14.058;2022-11-30T10:34:46;6.60;38.10
326;DHT22;150;52.352;14.058;2022-11-30T10:37:16;6.50;37.90
326;DHT22;150;52.352;14.058;2022-11-30T10:39:49;6.50;38.30
326;DHT22;150;52.352;14.058;2022-11-30T10:42:25;6.40;38.30
326;DHT22;150;52.352;14.058;2022-11-30T10:44:59;6.30;38.30
326;DHT22;150;52.352;14.058;2022-11-30T10:47:29;6.20;39.00
326;DHT22;150;52.352;14.058;2022-11-30T10:50:00;6.10;38.50
326;DHT22;150;52.352;14.058;2022-11-30T10:52:29;5.90;39.30
326;DHT22;150;52.352;14.058;2022-11-30T10:54:57;5.80;39.80
326;DHT22;150;52.352;14.058;2022-11-30T10:57:28;5.60;40.40
326;DHT22;150;52.352;14.058;2022-11-30T10:59:56;5.40;41.20
326;DHT22;150;52.352;14.058;2022-11-30T11:02:35;5.40;42.00
326;DHT22;150;52.352;14.058;2022-11-30T11:05:16;5.40;41.40
326;DHT22;150;52.352;14.058;2022-11-30T11:07:49;5.30;41.20
326;DHT22;150;52.352;14.058;2022-11-30T11:10:18;5.10;42.10
326;DHT22;150;52.352;14.058;2022-11-30T11:12:47;4.90;42.60
326;DHT22;150;52.352;14.058;2022-11-30T11:15:18;4.70;44.10
326;DHT22;150;52.352;14.058;2022-11-30T11:17:46;4.50;45.30
326;DHT22;150;52.352;14.058;2022-11-30T11:20:30;4.50;44.60
326;DHT22;150;52.352;14.058;2022-11-30T11:22:57;4.50;45.40
326;DHT22;150;52.352;14.058;2022-11-30T11:25:28;4.60;45.60
326;DHT22;150;52.352;14.058;2022-11-30T11:28:04;4.60;44.70
326;DHT22;150;52.352;14.058;2022-11-30T11:30:35;4.50;45.10
326;DHT22;150;52.352;14.058;2022-11-30T11:33:04;4.30;45.80
326;DHT22;150;52.352;14.058;2022-11-30T11:35:44;4.30;45.70
326;DHT22;150;52.352;14.058;2022-11-30T11:38:19;4.30;46.10
326;DHT22;150;52.352;14.058;2022-11-30T11:40:54;4.20;46.20
326;DHT22;150;52.352;14.058;2022-11-30T11:43:22;4.20;46.60
326;DHT22;150;52.352;14.058;2022-11-30T11:45:51;4.30;46.40
326;DHT22;150;52.352;14.058;2022-11-30T11:48:37;4.10;46.00
326;DHT22;150;52.352;14.058;2022-11-30T11:51:07;4.10;46.80
326;DHT22;150;52.352;14.058;2022-11-30T11:53:47;4.10;46.40
326;DHT22;150;52.352;14.058;2022-11-30T11:56:19;4.10;47.10
326;DHT22;150;52.352;14.058;2022-11-30T11:58:50;4.20;47.10
326;DHT22;150;52.352;14.058;2022-11-30T12:01:30;4.30;46.80
326;DHT22;150;52.352;14.058;2022-11-30T12:04:11;4.20;45.80
326;DHT22;150;52.352;14.058;2022-11-30T12:06:41;4.20;45.90
326;DHT22;150;52.352;14.058;2022-11-30T12:09:14;4.10;46.00
326;DHT22;150;52.352;14.058;2022-11-30T12:11:44;4.20;46.10
326;DHT22;150;52.352;14.058;2022-11-30T12:14:13;4.40;45.90
326;DHT22;150;52.352;14.058;2022-11-30T12:16:59;4.20;45.70
326;DHT22;150;52.352;14.058;2022-11-30T12:19:35;4.20;46.20
326;DHT22;150;52.352;14.058;2022-11-30T12:22:14;4.20;46.30
326;DHT22;150;52.352;14.058;2022-11-30T12:24:55;4.20;45.80
326;DHT22;150;52.352;14.058;2022-11-30T12:27:30;4.00;46.60
326;DHT22;150;52.352;14.058;2022-11-30T12:30:10;4.00;47.10
326;DHT22;150;52.352;14.058;2022-11-30T12:32:55;4.10;46.80
326;DHT22;150;52.352;14.058;2022-11-30T12:35:35;3.90;46.90
326;DHT22;150;52.352;14.058;2022-11-30T12:38:11;3.80;47.40
326;DHT22;150;52.352;14.058;2022-11-30T12:40:45;3.90;48.10
326;DHT22;150;52.352;14.058;2022-11-30T12:43:23;3.90;47.80
326;DHT22;150;52.352;14.058;2022-11-30T12:45:55;4.00;47.90
326;DHT22;150;52.352;14.058;2022-11-30T12:48:32;4.00;46.50
326;DHT22;150;52.352;14.058;2022-11-30T12:51:12;4.10;46.70
326;DHT22;150;52.352;14.058;2022-11-30T12:53:48;4.10;46.40
326;DHT22;150;52.352;14.058;2022-11-30T12:56:22;4.10;46.00
326;DHT22;150;52.352;14.058;2022-11-30T12:59:00;4.10;45.30
326;DHT22;150;52.352;14.058;2022-11-30T13:01:42;4.10;45.50
326;DHT22;150;52.352;14.058;2022-11-30T13:04:15;4.10;45.60
326;DHT22;150;52.352;14.058;2022-11-30T13:06:46;4.00;45.80
326;DHT22;150;52.352;14.058;2022-11-30T13:09:21;3.80;45.70
326;DHT22;150;52.352;14.058;2022-11-30T13:11:55;3.90;46.00
326;DHT22;150;52.352;14.058;2022-11-30T13:14:24;3.90;46.00
326;DHT22;150;52.352;14.058;2022-11-30T13:16:59;3.80;46.40
326;DHT22;150;52.352;14.058;2022-11-30T13:19:43;3.60;47.40
326;DHT22;150;52.352;14.058;2022-11-30T13:22:16;3.70;47.20
326;DHT22;150;52.352;14.058;2022-11-30T13:24:52;3.80;46.90
326;DHT22;150;52.352;14.058;2022-11-30T13:27:25;3.80;47.00
326;DHT22;150;52.352;14.058;2022-11-30T13:30:18;3.70;47.20
326;DHT22;150;52.352;14.058;2022-11-30T13:32:45;3.80;47.40
326;DHT22;150;52.352;14.058;2022-11-30T13:35:40;3.90;47.00
326;DHT22;150;52.352;14.058;2022-11-30T13:38:18;3.90;46.40
326;DHT22;150;52.352;14.058;2022-11-30T13:40:55;3.90;46.70
326;DHT22;150;52.352;14.058;2022-11-30T13:43:25;4.10;46.00
326;DHT22;150;52.352;14.058;2022-11-30T13:46:12;4.00;45.50
326;DHT22;150;52.352;14.058;2022-11-30T13:48:41;4.00;45.80
326;DHT22;150;52.352;14.058;2022-11-30T13:51:08;4.00;46.20
326;DHT22;150;52.352;14.058;2022-11-30T13:53:36;3.90;46.30
326;DHT22;150;52.352;14.058;2022-11-30T13:56:32;3.80;46.70
326;DHT22;150;52.352;14.058;2022-11-30T13:59:32;3.80;47.30
326;DHT22;150;52.352;14.058;2022-11-30T14:05:20;3.70;48.10
326;DHT22;150;52.352;14.058;2022-11-30T14:08:15;3.80;47.90
326;DHT22;150;52.352;14.058;2022-11-30T14:10:43;3.90;47.20
326;DHT22;150;52.352;14.058;2022-11-30T14:13:30;3.80;47.20
326;DHT22;150;52.352;14.058;2022-11-30T14:15:58;3.80;47.20
326;DHT22;150;52.352;14.058;2022-11-30T14:18:41;3.70;48.00
326;DHT22;150;52.352;14.058;2022-11-30T14:21:28;3.70;48.20
326;DHT22;150;52.352;14.058;2022-11-30T14:23:58;3.90;48.00
326;DHT22;150;52.352;14.058;2022-11-30T14:26:29;3.80;47.20
326;DHT22;150;52.352;14.058;2022-11-30T14:29:03;3.80;47.60
326;DHT22;150;52.352;14.058;2022-11-30T14:31:33;3.90;47.70
326;DHT22;150;52.352;14.058;2022-11-30T14:34:08;3.90;47.60
326;DHT22;150;52.352;14.058;2022-11-30T14:36:39;3.90;47.10
326;DHT22;150;52.352;14.058;2022-11-30T14:39:26;3.90;47.00
326;DHT22;150;52.352;14.058;2022-11-30T14:41:53;3.80;47.10
326;DHT22;150;52.352;14.058;2022-11-30T14:44:22;3.80;47.40
326;DHT22;150;52.352;14.058;2022-11-30T14:46:48;3.70;47.80
326;DHT22;150;52.352;14.058;2022-11-30T14:49:18;3.70;48.10
326;DHT22;150;52.352;14.058;2022-11-30T14:51:47;3.60;48.40
326;DHT22;150;52.352;14.058;2022-11-30T14:57:07;3.40;48.80
326;DHT22;150;52.352;14.058;2022-11-30T14:59:45;3.40;49.80
326;DHT22;150;52.352;14.058;2022-11-30T15:02:23;3.50;49.80
326;DHT22;150;52.352;14.058;2022-11-30T15:04:52;3.60;49.50
326;DHT22;150;52.352;14.058;2022-11-30T15:07:20;3.60;49.00
326;DHT22;150;52.352;14.058;2022-11-30T15:09:50;3.70;49.00
326;DHT22;150;52.352;14.058;2022-11-30T15:12:19;3.80;48.40
326;DHT22;150;52.352;14.058;2022-11-30T15:15:16;3.90;48.20
326;DHT22;150;52.352;14.058;2022-11-30T15:17:49;3.70;48.10
326;DHT22;150;52.352;14.058;2022-11-30T15:20:18;3.80;48.10
326;DHT22;150;52.352;14.058;2022-11-30T15:22:45;3.70;48.30
326;DHT22;150;52.352;14.058;2022-11-30T15:25:13;3.70;48.40
326;DHT22;150;52.352;14.058;2022-11-30T15:27:40;3.70;48.70
326;DHT22;150;52.352;14.058;2022-11-30T15:30:13;3.70;48.80
326;DHT22;150;52.352;14.058;2022-11-30T15:32:43;3.70;48.90
326;DHT22;150;52.352;14.058;2022-11-30T15:35:16;3.80;49.10
326;DHT22;150;52.352;14.058;2022-11-30T15:37:44;3.90;48.60
326;DHT22;150;52.352;14.058;2022-11-30T15:40:15;3.90;48.10
326;DHT22;150;52.352;14.058;2022-11-30T15:42:42;3.90;48.70
326;DHT22;150;52.352;14.058;2022-11-30T15:45:20;3.90;47.60
326;DHT22;150;52.352;14.058;2022-11-30T15:47:48;3.90;47.70
326;DHT22;150;52.352;14.058;2022-11-30T15:50:37;3.90;48.10
326;DHT22;150;52.352;14.058;2022-11-30T15:53:26;3.90;47.40
326;DHT22;150;52.352;14.058;2022-11-30T15:55:55;3.70;48.10
326;DHT22;150;52.352;14.058;2022-11-30T15:58:37;3.70;48.70
326;DHT22;150;52.352;14.058;2022-11-30T16:01:12;3.80;49.10
326;DHT22;150;52.352;14.058;2022-11-30T16:04:01;3.90;48.20
326;DHT22;150;52.352;14.058;2022-11-30T16:06:30;3.80;48.00
326;DHT22;150;52.352;14.058;2022-11-30T16:08:58;3.70;48.00
326;DHT22;150;52.352;14.058;2022-11-30T16:11:27;3.70;48.00
326;DHT22;150;52.352;14.058;2022-11-30T16:13:54;3.70;48.30
326;DHT22;150;52.352;14.058;2022-11-30T16:16:30;3.60;48.40
326;DHT22;150;52.352;14.058;2022-11-30T16:18:58;3.60;49.00
326;DHT22;150;52.352;14.058;2022-11-30T16:21:25;3.60;49.00
326;DHT22;150;52.352;14.058;2022-11-30T16:23:51;3.60;49.00
326;DHT22;150;52.352;14.058;2022-11-30T16:26:18;3.70;48.80
326;DHT22;150;52.352;14.058;2022-11-30T16:28:45;3.70;49.00
326;DHT22;150;52.352;14.058;2022-11-30T16:31:16;3.70;48.60
326;DHT22;150;52.352;14.058;2022-11-30T16:33:45;3.80;48.60
326;DHT22;150;52.352;14.058;2022-11-30T16:36:15;3.80;48.20
326;DHT22;150;52.352;14.058;2022-11-30T16:38:42;3.90;47.90
326;DHT22;150;52.352;14.058;2022-11-30T16:41:13;4.00;47.60
326;DHT22;150;52.352;14.058;2022-11-30T16:43:40;4.00;47.00
326;DHT22;150;52.352;14.058;2022-11-30T16:46:09;4.10;47.40
326;DHT22;150;52.352;14.058;2022-11-30T16:48:36;4.00;46.80
326;DHT22;150;52.352;14.058;2022-11-30T16:51:03;3.90;46.90
326;DHT22;150;52.352;14.058;2022-11-30T16:53:31;3.90;47.10
326;DHT22;150;52.352;14.058;2022-11-30T16:55:58;4.00;47.40
326;DHT22;150;52.352;14.058;2022-11-30T16:58:25;4.20;46.80
326;DHT22;150;52.352;14.058;2022-11-30T17:00:52;4.30;45.90
326;DHT22;150;52.352;14.058;2022-11-30T17:03:21;4.10;45.90
326;DHT22;150;52.352;14.058;2022-11-30T17:05:49;4.10;46.00
326;DHT22;150;52.352;14.058;2022-11-30T17:08:16;4.10;45.80